sensor_id;sensor_type;location;lat;lon;timestamp;P1;durP1;ratioP1;P2;durP2;ratioP2
10637;SDS011;47007;49.252;8.904;2024-01-15T00:00:19;33.50;;;18.83;;
10637;SDS011;47007;49.252;8.904;2024-01-15T00:01:01;32.90;;;18.00;;
10637;SDS011;47007;49.252;8.904;2024-01-15T00:01:43;32.87;;;18.03;;
10637;SDS011;47007;49.252;8.904;2024-01-15T00:02:25;29.33;;;17.13;;
10637;SDS011;47007;49.252;8.904;2024-01-15T00:03:07;33.03;;;18.30;;
10637;SDS011;47007;49.252;8.904;2024-01-15T00:03:50;28.17;;;17.23;;
10637;SDS011;47007;49.252;8.904;2024-01-15T00:04:40;32.40;;;17.63;;
10637;SDS011;47007;49.252;8.904;2024-01-15T00:05:22;31.80;;;17.90;;
10637;SDS011;47007;49.252;8.904;2024-01-15T00:06:07;32.13;;;17.90;;
10637;SDS011;47007;49.252;8.904;2024-01-15T00:06:49;30.87;;;18.10;;
10637;SDS011;47007;49.252;8.904;2024-01-15T00:07:35;33.20;;;18.53;;
10637;SDS011;47007;49.252;8.904;2024-01-15T00:08:17;32.57;;;19.50;;
10637;SDS011;47007;49.252;8.904;2024-01-15T00:08:58;33.30;;;19.00;;
10637;SDS011;47007;49.252;8.904;2024-01-15T00:09:40;30.33;;;16.47;;
10637;SDS011;47007;49.252;8.904;2024-01-15T00:10:23;30.17;;;17.33;;
10637;SDS011;47007;49.252;8.904;2024-01-15T00:11:05;29.40;;;18.00;;
10637;SDS011;47007;49.252;8.904;2024-01-15T00:11:46;32.40;;;17.77;;
10637;SDS011;47007;49.252;8.904;2024-01-15T00:12:28;31.07;;;18.07;;
10637;SDS011;47007;49.252;8.904;2024-01-15T00:13:11;31.23;;;17.77;;
10637;SDS011;47007;49.252;8.904;2024-01-15T00:13:53;28.73;;;17.30;;
10637;SDS011;47007;49.252;8.904;2024-01-15T00:14:35;31.37;;;18.60;;
10637;SDS011;47007;49.252;8.904;2024-01-15T00:15:17;34.77;;;18.67;;
10637;SDS011;47007;49.252;8.904;2024-01-15T00:15:58;28.70;;;16.70;;
10637;SDS011;47007;49.252;8.904;2024-01-15T00:16:40;32.67;;;17.63;;
10637;SDS011;47007;49.252;8.904;2024-01-15T00:17:22;32.30;;;18.17;;
10637;SDS011;47007;49.252;8.904;2024-01-15T00:18:04;33.23;;;18.37;;
10637;SDS011;47007;49.252;8.904;2024-01-15T00:18:47;29.53;;;17.13;;
10637;SDS011;47007;49.252;8.904;2024-01-15T00:19:28;29.77;;;16.00;;
10637;SDS011;47007;49.252;8.904;2024-01-15T00:20:13;30.13;;;16.63;;
10637;SDS011;47007;49.252;8.904;2024-01-15T00:20:55;28.00;;;16.60;;
10637;SDS011;47007;49.252;8.904;2024-01-15T00:21:39;28.60;;;17.33;;
10637;SDS011;47007;49.252;8.904;2024-01-15T00:22:21;31.07;;;17.63;;
10637;SDS011;47007;49.252;8.904;2024-01-15T00:23:05;30.47;;;16.97;;
10637;SDS011;47007;49.252;8.904;2024-01-15T00:23:46;28.67;;;16.97;;
10637;SDS011;47007;49.252;8.904;2024-01-15T00:24:28;29.73;;;16.80;;
10637;SDS011;47007;49.252;8.904;2024-01-15T00:25:10;29.77;;;17.10;;
10637;SDS011;47007;49.252;8.904;2024-01-15T00:25:52;31.30;;;18.20;;
10637;SDS011;47007;49.252;8.904;2024-01-15T00:26:34;29.20;;;17.13;;
10637;SDS011;47007;49.252;8.904;2024-01-15T00:27:16;28.50;;;16.47;;
10637;SDS011;47007;49.252;8.904;2024-01-15T00:27:57;28.17;;;16.37;;
10637;SDS011;47007;49.252;8.904;2024-01-15T00:28:40;30.70;;;18.70;;
10637;SDS011;47007;49.252;8.904;2024-01-15T00:29:22;31.17;;;19.37;;
10637;SDS011;47007;49.252;8.904;2024-01-15T00:30:04;31.00;;;18.07;;
10637;SDS011;47007;49.252;8.904;2024-01-15T00:30:46;31.83;;;17.87;;
10637;SDS011;47007;49.252;8.904;2024-01-15T00:31:28;31.27;;;17.10;;
10637;SDS011;47007;49.252;8.904;2024-01-15T00:32:14;31.87;;;17.23;;
10637;SDS011;47007;49.252;8.904;2024-01-15T00:32:56;30.60;;;16.87;;
10637;SDS011;47007;49.252;8.904;2024-01-15T00:33:38;32.30;;;18.00;;
10637;SDS011;47007;49.252;8.904;2024-01-15T00:34:20;31.90;;;18.13;;
10637;SDS011;47007;49.252;8.904;2024-01-15T00:35:02;31.33;;;16.37;;
10637;SDS011;47007;49.252;8.904;2024-01-15T00:35:45;29.70;;;17.20;;
10637;SDS011;47007;49.252;8.904;2024-01-15T00:36:26;28.53;;;16.40;;
10637;SDS011;47007;49.252;8.904;2024-01-15T00:37:08;32.43;;;17.67;;
10637;SDS011;47007;49.252;8.904;2024-01-15T00:37:50;31.87;;;18.30;;
10637;SDS011;47007;49.252;8.904;2024-01-15T00:38:33;32.57;;;18.77;;
10637;SDS011;47007;49.252;8.904;2024-01-15T00:39:14;30.83;;;17.67;;
10637;SDS011;47007;49.252;8.904;2024-01-15T00:39:58;34.13;;;18.20;;
10637;SDS011;47007;49.252;8.904;2024-01-15T00:40:40;31.63;;;18.60;;
10637;SDS011;47007;49.252;8.904;2024-01-15T00:41:21;33.40;;;18.20;;
10637;SDS011;47007;49.252;8.904;2024-01-15T00:42:03;32.70;;;19.30;;
10637;SDS011;47007;49.252;8.904;2024-01-15T00:42:45;31.17;;;17.73;;
10637;SDS011;47007;49.252;8.904;2024-01-15T00:43:27;32.77;;;18.80;;
10637;SDS011;47007;49.252;8.904;2024-01-15T00:44:09;32.47;;;18.17;;
10637;SDS011;47007;49.252;8.904;2024-01-15T00:44:50;31.13;;;18.30;;
10637;SDS011;47007;49.252;8.904;2024-01-15T00:45:32;33.80;;;18.63;;
10637;SDS011;47007;49.252;8.904;2024-01-15T00:46:14;30.63;;;17.80;;
10637;SDS011;47007;49.252;8.904;2024-01-15T00:46:56;31.10;;;17.40;;
10637;SDS011;47007;49.252;8.904;2024-01-15T00:47:38;33.00;;;18.20;;
10637;SDS011;47007;49.252;8.904;2024-01-15T00:48:19;33.70;;;18.40;;
10637;SDS011;47007;49.252;8.904;2024-01-15T00:49:01;32.53;;;17.93;;
10637;SDS011;47007;49.252;8.904;2024-01-15T00:49:44;33.43;;;17.97;;
10637;SDS011;47007;49.252;8.904;2024-01-15T00:50:29;34.23;;;18.83;;
10637;SDS011;47007;49.252;8.904;2024-01-15T00:51:11;33.00;;;18.03;;
10637;SDS011;47007;49.252;8.904;2024-01-15T00:51:53;33.63;;;18.03;;
10637;SDS011;47007;49.252;8.904;2024-01-15T00:52:35;30.40;;;17.33;;
10637;SDS011;47007;49.252;8.904;2024-01-15T00:53:17;31.17;;;19.50;;
10637;SDS011;47007;49.252;8.904;2024-01-15T00:53:59;33.40;;;18.77;;
10637;SDS011;47007;49.252;8.904;2024-01-15T00:54:41;32.17;;;17.77;;
10637;SDS011;47007;49.252;8.904;2024-01-15T00:55:23;30.90;;;17.63;;
10637;SDS011;47007;49.252;8.904;2024-01-15T00:56:04;28.60;;;15.50;;
10637;SDS011;47007;49.252;8.904;2024-01-15T00:56:46;32.50;;;17.67;;
10637;SDS011;47007;49.252;8.904;2024-01-15T00:57:28;30.87;;;17.70;;
10637;SDS011;47007;49.252;8.904;2024-01-15T00:58:10;30.47;;;18.37;;
10637;SDS011;47007;49.252;8.904;2024-01-15T00:58:51;32.60;;;18.27;;
10637;SDS011;47007;49.252;8.904;2024-01-15T00:59:33;30.30;;;17.17;;
10637;SDS011;47007;49.252;8.904;2024-01-15T01:00:15;28.93;;;16.97;;
10637;SDS011;47007;49.252;8.904;2024-01-15T01:00:57;32.43;;;18.67;;
10637;SDS011;47007;49.252;8.904;2024-01-15T01:01:43;34.80;;;18.53;;
10637;SDS011;47007;49.252;8.904;2024-01-15T01:02:27;30.10;;;16.60;;
10637;SDS011;47007;49.252;8.904;2024-01-15T01:03:09;31.03;;;18.10;;
10637;SDS011;47007;49.252;8.904;2024-01-15T01:03:51;32.50;;;16.70;;
10637;SDS011;47007;49.252;8.904;2024-01-15T01:04:34;31.27;;;17.30;;
10637;SDS011;47007;49.252;8.904;2024-01-15T01:05:16;29.67;;;17.00;;
10637;SDS011;47007;49.252;8.904;2024-01-15T01:05:58;29.33;;;16.97;;
10637;SDS011;47007;49.252;8.904;2024-01-15T01:06:40;32.33;;;18.57;;
10637;SDS011;47007;49.252;8.904;2024-01-15T01:07:22;31.67;;;17.63;;
10637;SDS011;47007;49.252;8.904;2024-01-15T01:08:04;32.73;;;19.23;;
10637;SDS011;47007;49.252;8.904;2024-01-15T01:08:46;34.73;;;19.63;;
10637;SDS011;47007;49.252;8.904;2024-01-15T01:09:28;31.67;;;19.17;;
10637;SDS011;47007;49.252;8.904;2024-01-15T01:10:11;36.53;;;19.30;;
10637;SDS011;47007;49.252;8.904;2024-01-15T01:10:55;38.07;;;20.60;;
10637;SDS011;47007;49.252;8.904;2024-01-15T01:11:37;32.30;;;19.07;;
10637;SDS011;47007;49.252;8.904;2024-01-15T01:12:19;29.30;;;17.23;;
10637;SDS011;47007;49.252;8.904;2024-01-15T01:13:00;31.90;;;19.03;;
10637;SDS011;47007;49.252;8.904;2024-01-15T01:13:43;37.23;;;20.03;;
10637;SDS011;47007;49.252;8.904;2024-01-15T01:14:25;32.33;;;18.70;;
10637;SDS011;47007;49.252;8.904;2024-01-15T01:15:08;30.37;;;17.93;;
10637;SDS011;47007;49.252;8.904;2024-01-15T01:15:50;31.47;;;18.67;;
10637;SDS011;47007;49.252;8.904;2024-01-15T01:16:31;36.27;;;19.57;;
10637;SDS011;47007;49.252;8.904;2024-01-15T01:17:20;33.83;;;18.57;;
10637;SDS011;47007;49.252;8.904;2024-01-15T01:18:02;34.13;;;19.30;;
10637;SDS011;47007;49.252;8.904;2024-01-15T01:18:45;34.37;;;18.73;;
10637;SDS011;47007;49.252;8.904;2024-01-15T01:19:27;32.20;;;18.53;;
10637;SDS011;47007;49.252;8.904;2024-01-15T01:20:09;30.47;;;17.83;;
10637;SDS011;47007;49.252;8.904;2024-01-15T01:20:58;30.03;;;17.40;;
10637;SDS011;47007;49.252;8.904;2024-01-15T01:21:40;30.77;;;17.60;;
10637;SDS011;47007;49.252;8.904;2024-01-15T01:22:22;32.00;;;17.93;;
10637;SDS011;47007;49.252;8.904;2024-01-15T01:23:04;30.97;;;18.70;;
10637;SDS011;47007;49.252;8.904;2024-01-15T01:23:46;31.80;;;18.57;;
10637;SDS011;47007;49.252;8.904;2024-01-15T01:24:28;32.97;;;18.93;;
10637;SDS011;47007;49.252;8.904;2024-01-15T01:25:10;32.23;;;18.97;;
10637;SDS011;47007;49.252;8.904;2024-01-15T01:25:52;34.03;;;20.33;;
10637;SDS011;47007;49.252;8.904;2024-01-15T01:26:34;34.13;;;19.77;;
10637;SDS011;47007;49.252;8.904;2024-01-15T01:27:16;36.13;;;20.90;;
10637;SDS011;47007;49.252;8.904;2024-01-15T01:28:01;35.00;;;20.10;;
10637;SDS011;47007;49.252;8.904;2024-01-15T01:28:47;33.67;;;19.87;;
10637;SDS011;47007;49.252;8.904;2024-01-15T01:29:36;35.90;;;20.30;;
10637;SDS011;47007;49.252;8.904;2024-01-15T01:30:23;32.53;;;18.27;;
10637;SDS011;47007;49.252;8.904;2024-01-15T01:31:06;32.57;;;19.97;;
10637;SDS011;47007;49.252;8.904;2024-01-15T01:31:49;36.27;;;19.20;;
10637;SDS011;47007;49.252;8.904;2024-01-15T01:32:32;34.23;;;19.67;;
10637;SDS011;47007;49.252;8.904;2024-01-15T01:33:14;35.03;;;18.47;;
10637;SDS011;47007;49.252;8.904;2024-01-15T01:33:56;33.23;;;18.50;;
10637;SDS011;47007;49.252;8.904;2024-01-15T01:34:41;33.23;;;19.20;;
10637;SDS011;47007;49.252;8.904;2024-01-15T01:35:24;31.70;;;18.90;;
10637;SDS011;47007;49.252;8.904;2024-01-15T01:36:09;32.60;;;18.17;;
10637;SDS011;47007;49.252;8.904;2024-01-15T01:36:51;33.80;;;19.33;;
10637;SDS011;47007;49.252;8.904;2024-01-15T01:37:33;31.60;;;18.20;;
10637;SDS011;47007;49.252;8.904;2024-01-15T01:38:16;32.17;;;18.77;;
10637;SDS011;47007;49.252;8.904;2024-01-15T01:38:57;30.53;;;18.87;;
10637;SDS011;47007;49.252;8.904;2024-01-15T01:39:39;37.13;;;21.30;;
10637;SDS011;47007;49.252;8.904;2024-01-15T01:40:22;33.97;;;19.03;;
10637;SDS011;47007;49.252;8.904;2024-01-15T01:41:03;30.60;;;18.10;;
10637;SDS011;47007;49.252;8.904;2024-01-15T01:41:45;35.27;;;19.30;;
10637;SDS011;47007;49.252;8.904;2024-01-15T01:42:27;32.90;;;19.37;;
10637;SDS011;47007;49.252;8.904;2024-01-15T01:43:09;32.40;;;18.70;;
10637;SDS011;47007;49.252;8.904;2024-01-15T01:43:52;31.97;;;18.47;;
10637;SDS011;47007;49.252;8.904;2024-01-15T01:44:34;31.50;;;19.00;;
10637;SDS011;47007;49.252;8.904;2024-01-15T01:45:16;31.57;;;17.03;;
10637;SDS011;47007;49.252;8.904;2024-01-15T01:45:58;29.40;;;17.37;;
10637;SDS011;47007;49.252;8.904;2024-01-15T01:46:42;32.23;;;18.37;;
10637;SDS011;47007;49.252;8.904;2024-01-15T01:47:24;31.67;;;19.57;;
10637;SDS011;47007;49.252;8.904;2024-01-15T01:48:08;32.27;;;19.30;;
10637;SDS011;47007;49.252;8.904;2024-01-15T01:48:50;32.03;;;19.00;;
10637;SDS011;47007;49.252;8.904;2024-01-15T01:49:32;33.77;;;20.00;;
10637;SDS011;47007;49.252;8.904;2024-01-15T01:50:17;31.50;;;18.67;;
10637;SDS011;47007;49.252;8.904;2024-01-15T01:51:00;33.40;;;19.40;;
10637;SDS011;47007;49.252;8.904;2024-01-15T01:51:44;33.20;;;19.27;;
10637;SDS011;47007;49.252;8.904;2024-01-15T01:52:28;31.10;;;18.53;;
10637;SDS011;47007;49.252;8.904;2024-01-15T01:53:10;36.13;;;19.53;;
10637;SDS011;47007;49.252;8.904;2024-01-15T01:53:52;34.47;;;19.33;;
10637;SDS011;47007;49.252;8.904;2024-01-15T01:54:34;30.33;;;18.10;;
10637;SDS011;47007;49.252;8.904;2024-01-15T01:55:17;30.77;;;16.50;;
10637;SDS011;47007;49.252;8.904;2024-01-15T01:56:00;31.10;;;18.73;;
10637;SDS011;47007;49.252;8.904;2024-01-15T01:56:44;31.37;;;17.57;;
10637;SDS011;47007;49.252;8.904;2024-01-15T01:57:27;30.97;;;17.83;;
10637;SDS011;47007;49.252;8.904;2024-01-15T01:58:10;27.93;;;16.50;;
10637;SDS011;47007;49.252;8.904;2024-01-15T01:58:52;31.57;;;18.53;;
10637;SDS011;47007;49.252;8.904;2024-01-15T01:59:34;31.20;;;18.73;;
10637;SDS011;47007;49.252;8.904;2024-01-15T02:00:16;31.87;;;17.40;;
10637;SDS011;47007;49.252;8.904;2024-01-15T02:00:58;30.63;;;17.47;;
10637;SDS011;47007;49.252;8.904;2024-01-15T02:01:41;29.20;;;16.70;;
10637;SDS011;47007;49.252;8.904;2024-01-15T02:02:23;27.07;;;17.17;;
10637;SDS011;47007;49.252;8.904;2024-01-15T02:03:06;28.37;;;17.13;;
10637;SDS011;47007;49.252;8.904;2024-01-15T02:03:48;28.73;;;17.17;;
10637;SDS011;47007;49.252;8.904;2024-01-15T02:04:30;30.13;;;17.17;;
10637;SDS011;47007;49.252;8.904;2024-01-15T02:05:14;30.43;;;17.97;;
10637;SDS011;47007;49.252;8.904;2024-01-15T02:05:59;26.87;;;15.90;;
10637;SDS011;47007;49.252;8.904;2024-01-15T02:06:42;30.03;;;16.60;;
10637;SDS011;47007;49.252;8.904;2024-01-15T02:07:24;29.50;;;17.67;;
10637;SDS011;47007;49.252;8.904;2024-01-15T02:08:06;28.30;;;18.13;;
10637;SDS011;47007;49.252;8.904;2024-01-15T02:08:49;30.60;;;19.67;;
10637;SDS011;47007;49.252;8.904;2024-01-15T02:09:31;30.43;;;18.03;;
10637;SDS011;47007;49.252;8.904;2024-01-15T02:10:14;33.00;;;18.87;;
10637;SDS011;47007;49.252;8.904;2024-01-15T02:10:55;32.87;;;18.87;;
10637;SDS011;47007;49.252;8.904;2024-01-15T02:11:37;30.47;;;18.53;;
10637;SDS011;47007;49.252;8.904;2024-01-15T02:12:19;32.90;;;20.10;;
10637;SDS011;47007;49.252;8.904;2024-01-15T02:13:01;32.77;;;20.30;;
10637;SDS011;47007;49.252;8.904;2024-01-15T02:13:43;32.07;;;18.10;;
10637;SDS011;47007;49.252;8.904;2024-01-15T02:14:26;30.47;;;19.17;;
10637;SDS011;47007;49.252;8.904;2024-01-15T02:15:10;33.23;;;20.60;;
10637;SDS011;47007;49.252;8.904;2024-01-15T02:15:55;30.77;;;19.23;;
10637;SDS011;47007;49.252;8.904;2024-01-15T02:16:37;34.03;;;19.10;;
10637;SDS011;47007;49.252;8.904;2024-01-15T02:17:19;29.57;;;18.20;;
10637;SDS011;47007;49.252;8.904;2024-01-15T02:18:01;31.43;;;19.07;;
10637;SDS011;47007;49.252;8.904;2024-01-15T02:18:45;32.10;;;19.77;;
10637;SDS011;47007;49.252;8.904;2024-01-15T02:19:28;30.63;;;18.97;;
10637;SDS011;47007;49.252;8.904;2024-01-15T02:20:10;35.40;;;20.17;;
10637;SDS011;47007;49.252;8.904;2024-01-15T02:20:52;29.83;;;18.20;;
10637;SDS011;47007;49.252;8.904;2024-01-15T02:21:33;33.47;;;18.60;;
10637;SDS011;47007;49.252;8.904;2024-01-15T02:22:16;32.47;;;17.27;;
10637;SDS011;47007;49.252;8.904;2024-01-15T02:23:10;30.70;;;17.87;;
10637;SDS011;47007;49.252;8.904;2024-01-15T02:23:56;32.63;;;18.77;;
10637;SDS011;47007;49.252;8.904;2024-01-15T02:24:38;30.47;;;17.97;;
10637;SDS011;47007;49.252;8.904;2024-01-15T02:25:23;32.40;;;19.47;;
10637;SDS011;47007;49.252;8.904;2024-01-15T02:26:05;33.40;;;19.90;;
10637;SDS011;47007;49.252;8.904;2024-01-15T02:26:46;31.03;;;18.73;;
10637;SDS011;47007;49.252;8.904;2024-01-15T02:27:28;29.80;;;18.03;;
10637;SDS011;47007;49.252;8.904;2024-01-15T02:28:11;34.13;;;19.10;;
10637;SDS011;47007;49.252;8.904;2024-01-15T02:28:56;30.70;;;17.07;;
10637;SDS011;47007;49.252;8.904;2024-01-15T02:29:38;30.33;;;18.97;;
10637;SDS011;47007;49.252;8.904;2024-01-15T02:30:20;30.23;;;18.63;;
10637;SDS011;47007;49.252;8.904;2024-01-15T02:31:03;34.47;;;18.57;;
10637;SDS011;47007;49.252;8.904;2024-01-15T02:31:45;31.00;;;18.20;;
10637;SDS011;47007;49.252;8.904;2024-01-15T02:32:27;30.23;;;18.50;;
10637;SDS011;47007;49.252;8.904;2024-01-15T02:33:09;33.50;;;19.50;;
10637;SDS011;47007;49.252;8.904;2024-01-15T02:33:52;34.07;;;19.27;;
10637;SDS011;47007;49.252;8.904;2024-01-15T02:34:34;30.73;;;18.37;;
10637;SDS011;47007;49.252;8.904;2024-01-15T02:35:16;28.60;;;18.07;;
10637;SDS011;47007;49.252;8.904;2024-01-15T02:35:57;30.73;;;18.00;;
10637;SDS011;47007;49.252;8.904;2024-01-15T02:36:39;27.70;;;17.17;;
10637;SDS011;47007;49.252;8.904;2024-01-15T02:37:21;30.63;;;18.57;;
10637;SDS011;47007;49.252;8.904;2024-01-15T02:38:03;30.77;;;17.27;;
10637;SDS011;47007;49.252;8.904;2024-01-15T02:38:48;27.23;;;16.93;;
10637;SDS011;47007;49.252;8.904;2024-01-15T02:39:30;30.20;;;18.47;;
10637;SDS011;47007;49.252;8.904;2024-01-15T02:40:13;31.27;;;17.97;;
10637;SDS011;47007;49.252;8.904;2024-01-15T02:40:54;30.87;;;18.13;;
10637;SDS011;47007;49.252;8.904;2024-01-15T02:41:36;30.33;;;17.80;;
10637;SDS011;47007;49.252;8.904;2024-01-15T02:42:18;31.43;;;18.57;;
10637;SDS011;47007;49.252;8.904;2024-01-15T02:43:00;29.80;;;17.80;;
10637;SDS011;47007;49.252;8.904;2024-01-15T02:43:42;30.30;;;17.60;;
10637;SDS011;47007;49.252;8.904;2024-01-15T02:44:24;30.07;;;18.80;;
10637;SDS011;47007;49.252;8.904;2024-01-15T02:45:05;31.07;;;18.83;;
10637;SDS011;47007;49.252;8.904;2024-01-15T02:45:47;31.00;;;19.23;;
10637;SDS011;47007;49.252;8.904;2024-01-15T02:46:29;31.93;;;17.37;;
10637;SDS011;47007;49.252;8.904;2024-01-15T02:47:11;30.93;;;18.80;;
10637;SDS011;47007;49.252;8.904;2024-01-15T02:47:53;30.93;;;18.03;;
10637;SDS011;47007;49.252;8.904;2024-01-15T02:48:35;30.73;;;18.27;;
10637;SDS011;47007;49.252;8.904;2024-01-15T02:49:17;29.27;;;17.33;;
10637;SDS011;47007;49.252;8.904;2024-01-15T02:49:59;32.17;;;18.17;;
10637;SDS011;47007;49.252;8.904;2024-01-15T02:50:41;31.00;;;19.13;;
10637;SDS011;47007;49.252;8.904;2024-01-15T02:51:23;29.10;;;17.07;;
10637;SDS011;47007;49.252;8.904;2024-01-15T02:52:08;33.40;;;19.63;;
10637;SDS011;47007;49.252;8.904;2024-01-15T02:52:50;32.23;;;18.67;;
10637;SDS011;47007;49.252;8.904;2024-01-15T02:53:31;28.87;;;16.90;;
10637;SDS011;47007;49.252;8.904;2024-01-15T02:54:13;30.67;;;18.50;;
10637;SDS011;47007;49.252;8.904;2024-01-15T02:54:55;31.50;;;19.10;;
10637;SDS011;47007;49.252;8.904;2024-01-15T02:55:37;31.07;;;18.30;;
10637;SDS011;47007;49.252;8.904;2024-01-15T02:56:18;30.83;;;18.70;;
10637;SDS011;47007;49.252;8.904;2024-01-15T02:57:00;28.00;;;18.17;;
10637;SDS011;47007;49.252;8.904;2024-01-15T02:57:42;29.47;;;18.63;;
10637;SDS011;47007;49.252;8.904;2024-01-15T02:58:24;31.67;;;18.37;;
10637;SDS011;47007;49.252;8.904;2024-01-15T02:59:05;30.50;;;17.63;;
10637;SDS011;47007;49.252;8.904;2024-01-15T02:59:47;30.37;;;17.77;;
10637;SDS011;47007;49.252;8.904;2024-01-15T03:00:29;29.87;;;17.60;;
10637;SDS011;47007;49.252;8.904;2024-01-15T03:01:11;29.73;;;18.50;;
10637;SDS011;47007;49.252;8.904;2024-01-15T03:01:52;27.13;;;17.13;;
10637;SDS011;47007;49.252;8.904;2024-01-15T03:02:37;29.80;;;17.93;;
10637;SDS011;47007;49.252;8.904;2024-01-15T03:03:28;31.63;;;18.07;;
10637;SDS011;47007;49.252;8.904;2024-01-15T03:04:10;28.87;;;17.47;;
10637;SDS011;47007;49.252;8.904;2024-01-15T03:04:52;30.77;;;17.87;;
10637;SDS011;47007;49.252;8.904;2024-01-15T03:05:34;27.57;;;18.13;;
10637;SDS011;47007;49.252;8.904;2024-01-15T03:06:16;29.30;;;18.27;;
10637;SDS011;47007;49.252;8.904;2024-01-15T03:06:57;31.23;;;18.43;;
10637;SDS011;47007;49.252;8.904;2024-01-15T03:07:39;29.53;;;18.10;;
10637;SDS011;47007;49.252;8.904;2024-01-15T03:08:21;30.13;;;17.97;;
10637;SDS011;47007;49.252;8.904;2024-01-15T03:09:04;29.13;;;17.53;;
10637;SDS011;47007;49.252;8.904;2024-01-15T03:09:47;30.43;;;18.37;;
10637;SDS011;47007;49.252;8.904;2024-01-15T03:10:29;28.67;;;17.93;;
10637;SDS011;47007;49.252;8.904;2024-01-15T03:11:10;30.30;;;18.83;;
10637;SDS011;47007;49.252;8.904;2024-01-15T03:11:52;28.90;;;17.80;;
10637;SDS011;47007;49.252;8.904;2024-01-15T03:12:34;28.13;;;17.80;;
10637;SDS011;47007;49.252;8.904;2024-01-15T03:13:16;30.03;;;17.47;;
10637;SDS011;47007;49.252;8.904;2024-01-15T03:13:57;28.03;;;16.57;;
10637;SDS011;47007;49.252;8.904;2024-01-15T03:14:41;26.90;;;16.33;;
10637;SDS011;47007;49.252;8.904;2024-01-15T03:15:23;27.93;;;16.70;;
10637;SDS011;47007;49.252;8.904;2024-01-15T03:16:05;29.57;;;17.90;;
10637;SDS011;47007;49.252;8.904;2024-01-15T03:16:47;26.33;;;16.67;;
10637;SDS011;47007;49.252;8.904;2024-01-15T03:17:31;25.77;;;16.47;;
10637;SDS011;47007;49.252;8.904;2024-01-15T03:18:13;27.13;;;16.77;;
10637;SDS011;47007;49.252;8.904;2024-01-15T03:18:55;26.30;;;16.60;;
10637;SDS011;47007;49.252;8.904;2024-01-15T03:19:37;28.27;;;17.13;;
10637;SDS011;47007;49.252;8.904;2024-01-15T03:20:19;28.07;;;15.67;;
10637;SDS011;47007;49.252;8.904;2024-01-15T03:21:00;24.33;;;14.60;;
10637;SDS011;47007;49.252;8.904;2024-01-15T03:21:43;27.30;;;16.30;;
10637;SDS011;47007;49.252;8.904;2024-01-15T03:22:24;27.83;;;16.00;;
10637;SDS011;47007;49.252;8.904;2024-01-15T03:23:06;29.73;;;16.87;;
10637;SDS011;47007;49.252;8.904;2024-01-15T03:23:48;25.57;;;16.77;;
10637;SDS011;47007;49.252;8.904;2024-01-15T03:24:31;28.37;;;16.93;;
10637;SDS011;47007;49.252;8.904;2024-01-15T03:25:13;28.43;;;17.00;;
10637;SDS011;47007;49.252;8.904;2024-01-15T03:25:55;27.47;;;16.73;;
10637;SDS011;47007;49.252;8.904;2024-01-15T03:26:37;26.90;;;17.30;;
10637;SDS011;47007;49.252;8.904;2024-01-15T03:27:19;27.13;;;16.17;;
10637;SDS011;47007;49.252;8.904;2024-01-15T03:28:00;29.47;;;17.57;;
10637;SDS011;47007;49.252;8.904;2024-01-15T03:28:42;27.43;;;16.57;;
10637;SDS011;47007;49.252;8.904;2024-01-15T03:29:25;26.70;;;16.67;;
10637;SDS011;47007;49.252;8.904;2024-01-15T03:30:07;26.87;;;16.77;;
10637;SDS011;47007;49.252;8.904;2024-01-15T03:30:50;26.50;;;16.20;;
10637;SDS011;47007;49.252;8.904;2024-01-15T03:31:32;27.17;;;16.97;;
10637;SDS011;47007;49.252;8.904;2024-01-15T03:32:13;24.43;;;16.43;;
10637;SDS011;47007;49.252;8.904;2024-01-15T03:32:57;29.33;;;17.47;;
10637;SDS011;47007;49.252;8.904;2024-01-15T03:33:38;26.57;;;16.57;;
10637;SDS011;47007;49.252;8.904;2024-01-15T03:34:20;26.03;;;15.50;;
10637;SDS011;47007;49.252;8.904;2024-01-15T03:35:02;26.07;;;16.27;;
10637;SDS011;47007;49.252;8.904;2024-01-15T03:35:44;26.97;;;16.70;;
10637;SDS011;47007;49.252;8.904;2024-01-15T03:36:26;26.70;;;16.30;;
10637;SDS011;47007;49.252;8.904;2024-01-15T03:37:08;26.60;;;16.17;;
10637;SDS011;47007;49.252;8.904;2024-01-15T03:37:49;27.30;;;17.73;;
10637;SDS011;47007;49.252;8.904;2024-01-15T03:38:31;25.57;;;16.90;;
10637;SDS011;47007;49.252;8.904;2024-01-15T03:39:13;27.60;;;17.60;;
10637;SDS011;47007;49.252;8.904;2024-01-15T03:39:54;29.70;;;17.37;;
10637;SDS011;47007;49.252;8.904;2024-01-15T03:40:36;27.93;;;16.43;;
10637;SDS011;47007;49.252;8.904;2024-01-15T03:41:18;27.10;;;16.63;;
10637;SDS011;47007;49.252;8.904;2024-01-15T03:42:00;25.83;;;15.97;;
10637;SDS011;47007;49.252;8.904;2024-01-15T03:42:44;28.27;;;17.47;;
10637;SDS011;47007;49.252;8.904;2024-01-15T03:43:26;28.37;;;17.13;;
10637;SDS011;47007;49.252;8.904;2024-01-15T03:44:09;27.67;;;16.87;;
10637;SDS011;47007;49.252;8.904;2024-01-15T03:44:54;24.97;;;16.67;;
10637;SDS011;47007;49.252;8.904;2024-01-15T03:45:35;28.70;;;16.93;;
10637;SDS011;47007;49.252;8.904;2024-01-15T03:46:17;27.00;;;16.03;;
10637;SDS011;47007;49.252;8.904;2024-01-15T03:46:59;25.03;;;15.63;;
10637;SDS011;47007;49.252;8.904;2024-01-15T03:47:42;25.73;;;16.77;;
10637;SDS011;47007;49.252;8.904;2024-01-15T03:48:26;30.60;;;17.43;;
10637;SDS011;47007;49.252;8.904;2024-01-15T03:49:08;24.40;;;15.40;;
10637;SDS011;47007;49.252;8.904;2024-01-15T03:49:50;28.07;;;16.50;;
10637;SDS011;47007;49.252;8.904;2024-01-15T03:50:32;27.40;;;16.93;;
10637;SDS011;47007;49.252;8.904;2024-01-15T03:51:15;27.77;;;17.40;;
10637;SDS011;47007;49.252;8.904;2024-01-15T03:51:59;28.30;;;17.30;;
10637;SDS011;47007;49.252;8.904;2024-01-15T03:52:40;27.37;;;17.20;;
10637;SDS011;47007;49.252;8.904;2024-01-15T03:53:22;26.27;;;16.57;;
10637;SDS011;47007;49.252;8.904;2024-01-15T03:54:04;28.23;;;16.77;;
10637;SDS011;47007;49.252;8.904;2024-01-15T03:54:46;27.77;;;17.67;;
10637;SDS011;47007;49.252;8.904;2024-01-15T03:55:31;26.00;;;16.63;;
10637;SDS011;47007;49.252;8.904;2024-01-15T03:56:15;29.90;;;17.33;;
10637;SDS011;47007;49.252;8.904;2024-01-15T03:56:57;25.67;;;15.57;;
10637;SDS011;47007;49.252;8.904;2024-01-15T03:57:39;27.30;;;17.47;;
10637;SDS011;47007;49.252;8.904;2024-01-15T03:58:21;28.67;;;16.67;;
10637;SDS011;47007;49.252;8.904;2024-01-15T03:59:02;26.17;;;16.00;;
10637;SDS011;47007;49.252;8.904;2024-01-15T03:59:45;28.47;;;16.90;;
10637;SDS011;47007;49.252;8.904;2024-01-15T04:00:28;27.13;;;16.10;;
10637;SDS011;47007;49.252;8.904;2024-01-15T04:01:10;24.40;;;15.33;;
10637;SDS011;47007;49.252;8.904;2024-01-15T04:01:53;24.27;;;15.27;;
10637;SDS011;47007;49.252;8.904;2024-01-15T04:02:36;25.70;;;16.10;;
10637;SDS011;47007;49.252;8.904;2024-01-15T04:03:17;26.43;;;17.27;;
10637;SDS011;47007;49.252;8.904;2024-01-15T04:03:59;26.80;;;17.17;;
10637;SDS011;47007;49.252;8.904;2024-01-15T04:04:42;25.77;;;16.33;;
10637;SDS011;47007;49.252;8.904;2024-01-15T04:05:25;27.50;;;16.43;;
10637;SDS011;47007;49.252;8.904;2024-01-15T04:06:06;24.80;;;16.03;;
10637;SDS011;47007;49.252;8.904;2024-01-15T04:06:48;26.77;;;16.13;;
10637;SDS011;47007;49.252;8.904;2024-01-15T04:07:30;23.50;;;14.03;;
10637;SDS011;47007;49.252;8.904;2024-01-15T04:08:12;23.93;;;14.63;;